createdAt,value
2023-01-18T00:01:03.578Z,0.63
2023-01-18T00:03:33.620Z,0.87
2023-01-18T00:06:05.489Z,0.97
2023-01-18T00:08:34.234Z,1.07
2023-01-18T00:11:11.717Z,1.33
2023-01-18T00:13:38.527Z,1.83
2023-01-18T00:16:11.939Z,1.40
2023-01-18T00:18:38.740Z,1.53
2023-01-18T00:21:09.846Z,1.50
2023-01-18T00:23:37.195Z,1.20
2023-01-18T00:26:06.890Z,1.23
2023-01-18T00:28:33.584Z,1.37
2023-01-18T00:31:00.254Z,1.33
2023-01-18T00:33:26.953Z,2.20
2023-01-18T00:36:01.430Z,1.07
2023-01-18T00:38:29.420Z,0.80
2023-01-18T00:40:56.652Z,1.70
2023-01-18T00:43:38.938Z,1.90
2023-01-18T00:46:14.107Z,1.77
2023-01-18T00:48:42.547Z,1.60
2023-01-18T00:51:12.267Z,2.30
2023-01-18T00:53:39.347Z,2.20
2023-01-18T00:56:11.024Z,1.60
2023-01-18T00:58:37.956Z,1.63
2023-01-18T01:01:06.258Z,1.90
2023-01-18T01:03:52.930Z,1.90
2023-01-18T01:06:47.377Z,1.83
2023-01-18T01:09:19.709Z,2.53
2023-01-18T01:12:06.125Z,2.33
2023-01-18T01:14:53.628Z,1.83
2023-01-18T01:17:39.011Z,1.87
2023-01-18T01:20:25.644Z,1.70
2023-01-18T01:23:10.787Z,1.67
2023-01-18T01:25:56.793Z,2.33
2023-01-18T01:28:23.439Z,2.20
2023-01-18T01:30:50.069Z,2.70
2023-01-18T01:33:18.123Z,2.03
2023-01-18T01:35:44.782Z,1.83
2023-01-18T01:38:11.470Z,1.77
2023-01-18T01:40:38.119Z,1.77
2023-01-18T01:43:06.184Z,2.33
2023-01-18T01:45:32.989Z,1.63
2023-01-18T01:48:00.009Z,1.77
2023-01-18T01:50:39.639Z,2.10
2023-01-18T01:53:07.251Z,1.83
2023-01-18T01:55:38.053Z,2.10
2023-01-18T01:58:12.570Z,1.97
2023-01-18T02:00:39.892Z,2.43
2023-01-18T02:03:09.858Z,2.47
2023-01-18T02:06:01.702Z,2.43
2023-01-18T02:08:28.592Z,2.20
2023-01-18T02:10:55.381Z,2.87
2023-01-18T02:13:24.433Z,3.23
2023-01-18T02:16:11.145Z,2.07
2023-01-18T02:19:03.484Z,2.17
2023-01-18T02:21:58.892Z,2.40
2023-01-18T02:24:58.817Z,1.83
2023-01-18T02:27:32.056Z,1.97
2023-01-18T02:30:07.885Z,2.00
2023-01-18T02:33:08.979Z,1.87
2023-01-18T02:35:52.479Z,2.13
2023-01-18T02:38:26.519Z,2.13
2023-01-18T02:41:11.887Z,2.63
2023-01-18T02:44:00.211Z,2.03
2023-01-18T02:46:31.404Z,2.20
2023-01-18T02:48:58.734Z,1.80
2023-01-18T02:51:25.571Z,3.37
2023-01-18T02:53:52.370Z,2.37
2023-01-18T02:56:28.654Z,2.17
2023-01-18T02:58:59.013Z,1.87
2023-01-18T03:01:31.967Z,1.97
2023-01-18T03:04:08.014Z,2.07
2023-01-18T03:06:35.293Z,2.43
2023-01-18T03:09:02.803Z,2.30
2023-01-18T03:11:42.249Z,1.73
2023-01-18T03:14:36.625Z,3.13
2023-01-18T03:17:21.199Z,2.07
2023-01-18T03:20:07.880Z,2.63
2023-01-18T03:23:05.572Z,2.50
2023-01-18T03:25:39.148Z,3.47
2023-01-18T03:28:28.109Z,2.33
2023-01-18T03:31:17.899Z,1.80
2023-01-18T03:33:50.606Z,3.10
2023-01-18T03:36:30.795Z,3.07
2023-01-18T03:39:07.873Z,2.70
2023-01-18T03:41:39.911Z,3.03
2023-01-18T03:44:12.269Z,3.47
2023-01-18T03:46:40.583Z,2.40
2023-01-18T03:49:08.222Z,3.00
2023-01-18T03:51:47.562Z,2.73
2023-01-18T03:54:29.024Z,3.20
2023-01-18T03:57:08.430Z,2.80
2023-01-18T03:59:38.355Z,2.27
2023-01-18T04:02:06.408Z,2.87
2023-01-18T04:04:33.245Z,3.30
2023-01-18T04:06:59.978Z,2.27
2023-01-18T04:09:26.857Z,2.93
2023-01-18T04:11:54.094Z,2.53
2023-01-18T04:14:20.992Z,2.10
2023-01-18T04:16:47.688Z,2.07
2023-01-18T04:19:14.273Z,2.77
2023-01-18T04:21:40.926Z,3.20
2023-01-18T04:24:07.796Z,2.80
2023-01-18T04:26:34.447Z,2.43
2023-01-18T04:29:01.904Z,2.70
2023-01-18T04:31:28.996Z,3.30
2023-01-18T04:33:55.686Z,1.70
2023-01-18T04:36:22.443Z,3.73
2023-01-18T04:38:54.323Z,3.37
2023-01-18T04:41:21.453Z,3.33
2023-01-18T04:43:48.006Z,3.47
2023-01-18T04:46:15.593Z,3.03
2023-01-18T04:48:42.803Z,3.40
2023-01-18T04:51:14.268Z,2.20
2023-01-18T04:53:42.642Z,2.50
2023-01-18T04:56:10.203Z,2.10
2023-01-18T04:58:37.452Z,2.67
2023-01-18T05:01:06.516Z,3.13
2023-01-18T05:03:38.429Z,2.67
2023-01-18T05:06:11.057Z,1.73
2023-01-18T05:08:41.252Z,3.03
2023-01-18T05:11:13.531Z,2.60
2023-01-18T05:13:41.269Z,3.07
2023-01-18T05:16:12.776Z,3.07
2023-01-18T05:18:39.559Z,2.60
2023-01-18T05:21:06.391Z,2.60
2023-01-18T05:23:33.093Z,2.63
2023-01-18T05:25:59.847Z,2.57
2023-01-18T05:28:27.885Z,2.13
2023-01-18T05:30:55.063Z,2.67
2023-01-18T05:33:23.507Z,3.23
2023-01-18T05:35:51.163Z,3.13
2023-01-18T05:38:18.130Z,2.63
2023-01-18T05:40:55.005Z,2.77
2023-01-18T05:43:23.518Z,2.53
2023-01-18T05:45:50.343Z,2.80
2023-01-18T05:48:17.553Z,2.50
2023-01-18T05:50:46.059Z,2.47
2023-01-18T05:53:14.533Z,2.37
2023-01-18T05:55:41.425Z,3.07
2023-01-18T05:58:08.442Z,3.43
2023-01-18T06:00:35.385Z,2.67
2023-01-18T06:03:02.239Z,2.93
2023-01-18T06:05:29.046Z,2.43
2023-01-18T06:07:55.575Z,2.47
2023-01-18T06:10:22.337Z,2.70
2023-01-18T06:12:49.109Z,2.73
2023-01-18T06:15:15.873Z,3.17
2023-01-18T06:17:45.194Z,2.23
2023-01-18T06:20:12.951Z,2.53
2023-01-18T06:22:40.883Z,2.73
2023-01-18T06:25:09.339Z,2.10
2023-01-18T06:27:37.758Z,3.07
2023-01-18T06:30:06.486Z,2.03
2023-01-18T06:32:33.353Z,2.53
2023-01-18T06:35:00.087Z,2.63
2023-01-18T06:37:26.634Z,2.90
2023-01-18T06:39:53.263Z,2.60
2023-01-18T06:42:20.110Z,2.60
2023-01-18T06:44:46.824Z,2.53
2023-01-18T06:47:15.729Z,2.47
2023-01-18T06:49:42.390Z,1.73
2023-01-18T06:52:08.985Z,2.90
2023-01-18T06:54:36.241Z,1.67
2023-01-18T06:57:02.815Z,2.50
2023-01-18T06:59:29.447Z,2.70
2023-01-18T07:01:56.208Z,2.00
2023-01-18T07:04:23.016Z,2.57
2023-01-18T07:06:49.776Z,2.07
2023-01-18T07:09:16.505Z,1.63
2023-01-18T07:11:43.668Z,2.20
2023-01-18T07:14:11.703Z,1.83
2023-01-18T07:16:39.651Z,1.77
2023-01-18T07:19:06.820Z,2.23
2023-01-18T07:21:33.464Z,1.90
2023-01-18T07:24:00.263Z,2.33
2023-01-18T07:26:26.989Z,1.37
2023-01-18T07:28:55.532Z,1.47
2023-01-18T07:31:24.044Z,1.13
2023-01-18T07:33:51.094Z,1.63
2023-01-18T07:36:18.183Z,1.47
2023-01-18T07:38:45.059Z,2.00
2023-01-18T07:41:17.134Z,2.30
2023-01-18T07:43:45.055Z,1.13
2023-01-18T07:46:16.030Z,1.33
2023-01-18T07:48:44.852Z,2.37
2023-01-18T07:51:12.384Z,1.10
2023-01-18T07:53:39.840Z,1.70
2023-01-18T07:56:09.493Z,2.27
2023-01-18T07:58:36.623Z,2.13
2023-01-18T08:01:05.325Z,2.27
2023-01-18T08:03:32.867Z,1.30
2023-01-18T08:06:00.380Z,1.30
2023-01-18T08:08:28.759Z,2.30
2023-01-18T08:11:00.321Z,2.03
2023-01-18T08:13:27.703Z,2.53
2023-01-18T08:15:55.838Z,1.50
2023-01-18T08:18:23.763Z,1.43
2023-01-18T08:20:50.800Z,1.90
2023-01-18T08:23:17.798Z,1.77
2023-01-18T08:25:45.565Z,1.83
2023-01-18T08:28:12.237Z,1.40
2023-01-18T08:30:42.856Z,2.03
2023-01-18T08:33:10.046Z,1.60
2023-01-18T08:35:45.510Z,1.33
2023-01-18T08:38:14.445Z,1.70
2023-01-18T08:40:41.691Z,2.00
2023-01-18T08:43:08.409Z,1.73
2023-01-18T08:45:35.593Z,1.70
2023-01-18T08:48:07.652Z,1.13
2023-01-18T08:50:35.553Z,1.07
2023-01-18T08:53:02.896Z,1.53
2023-01-18T08:55:30.235Z,1.60
2023-01-18T08:57:58.415Z,1.87
2023-01-18T09:00:28.665Z,1.07
2023-01-18T09:02:55.841Z,1.57
2023-01-18T09:05:23.068Z,1.70
2023-01-18T09:07:51.055Z,1.60
2023-01-18T09:10:17.801Z,1.90
2023-01-18T09:12:44.646Z,1.90
2023-01-18T09:15:11.341Z,1.47
2023-01-18T09:17:38.169Z,1.80
2023-01-18T09:20:09.872Z,1.87
2023-01-18T09:22:37.178Z,2.00
2023-01-18T09:25:05.051Z,1.70
2023-01-18T09:27:32.204Z,1.73
2023-01-18T09:29:59.269Z,1.47
2023-01-18T09:32:27.634Z,1.70
2023-01-18T09:34:55.009Z,1.67
2023-01-18T09:37:21.994Z,1.33
2023-01-18T09:39:52.792Z,1.63
2023-01-18T09:42:27.507Z,1.33
2023-01-18T09:44:59.923Z,1.30
2023-01-18T09:47:34.581Z,1.70
2023-01-18T09:50:11.093Z,1.43
2023-01-18T09:52:57.615Z,2.00
2023-01-18T09:55:34.236Z,2.17
2023-01-18T09:58:16.942Z,1.93
2023-01-18T10:00:48.206Z,1.33
2023-01-18T10:03:29.542Z,1.67
2023-01-18T10:06:24.581Z,1.57
2023-01-18T10:08:57.284Z,1.33
2023-01-18T10:11:37.946Z,1.40
2023-01-18T10:14:07.676Z,1.20
2023-01-18T10:16:35.868Z,1.30
2023-01-18T10:19:02.735Z,1.50
2023-01-18T10:21:45.407Z,1.47
2023-01-18T10:24:35.339Z,1.57
2023-01-18T10:27:18.163Z,1.50
2023-01-18T10:29:53.618Z,1.77
2023-01-18T10:32:24.055Z,1.57
2023-01-18T10:34:52.275Z,2.57
2023-01-18T10:37:40.461Z,1.13
2023-01-18T10:40:10.377Z,1.03
2023-01-18T10:42:45.420Z,1.80
2023-01-18T10:45:23.295Z,2.37
2023-01-18T10:47:52.774Z,1.13
2023-01-18T10:50:40.223Z,1.60
2023-01-18T10:53:29.488Z,1.23
2023-01-18T10:56:02.194Z,1.13
2023-01-18T10:58:43.596Z,1.60
2023-01-18T11:01:17.598Z,1.20
2023-01-18T11:04:05.992Z,1.60
2023-01-18T11:06:47.898Z,1.00
2023-01-18T11:09:36.258Z,2.17
2023-01-18T11:12:34.906Z,0.67
2023-01-18T11:15:13.680Z,1.33
2023-01-18T11:17:44.983Z,0.93
2023-01-18T11:20:22.055Z,1.47
2023-01-18T11:22:58.995Z,0.97
2023-01-18T11:25:46.939Z,1.00
2023-01-18T11:28:24.468Z,1.00
2023-01-18T11:30:55.581Z,1.77
2023-01-18T11:33:24.980Z,3.13
2023-01-18T11:35:59.427Z,1.30
2023-01-18T11:38:33.008Z,1.50
2023-01-18T11:41:06.871Z,0.90
2023-01-18T11:43:39.674Z,1.93
2023-01-18T11:46:28.875Z,1.30
2023-01-18T11:49:23.509Z,1.40
2023-01-18T11:52:02.098Z,0.73
2023-01-18T11:54:33.384Z,0.80
2023-01-18T11:57:03.285Z,0.77
2023-01-18T11:59:38.209Z,1.10
2023-01-18T12:02:45.662Z,1.73
2023-01-18T12:05:28.790Z,1.47
2023-01-18T12:08:27.125Z,1.13
2023-01-18T12:11:15.118Z,1.57
2023-01-18T12:13:47.703Z,0.80
2023-01-18T12:16:23.145Z,1.50
2023-01-18T12:19:17.743Z,0.93
2023-01-18T12:22:25.483Z,0.57
2023-01-18T12:25:30.034Z,0.63
2023-01-18T12:28:20.499Z,0.73
2023-01-18T12:31:03.325Z,1.00
2023-01-18T12:34:02.482Z,0.77
2023-01-18T12:36:47.203Z,0.87
2023-01-18T12:39:52.344Z,1.13
2023-01-18T12:42:30.354Z,0.50
2023-01-18T12:45:18.938Z,0.70
2023-01-18T12:47:57.670Z,2.53
2023-01-18T12:50:28.194Z,1.60
2023-01-18T12:53:03.725Z,0.50
2023-01-18T12:55:33.904Z,0.80
2023-01-18T12:58:03.021Z,1.17
2023-01-18T13:00:47.337Z,1.00
2023-01-18T13:03:20.002Z,1.53
2023-01-18T13:06:01.598Z,0.63
2023-01-18T13:08:59.932Z,0.73
2023-01-18T13:11:36.040Z,0.60
2023-01-18T13:14:17.868Z,0.70
2023-01-18T13:16:48.728Z,0.60
2023-01-18T13:19:48.546Z,0.57
2023-01-18T13:22:26.695Z,0.50
2023-01-18T13:25:24.969Z,0.63
2023-01-18T13:28:00.915Z,0.60
2023-01-18T13:30:30.822Z,0.90
2023-01-18T13:32:57.694Z,1.03
2023-01-18T13:35:33.767Z,0.70
2023-01-18T13:38:18.300Z,1.10
2023-01-18T13:40:55.209Z,0.80
2023-01-18T13:43:35.327Z,0.30
2023-01-18T13:46:07.965Z,0.60
2023-01-18T13:48:55.570Z,0.60
2023-01-18T13:51:40.660Z,0.80
2023-01-18T13:54:08.123Z,0.40
2023-01-18T13:56:36.824Z,0.80
2023-01-18T13:59:12.317Z,0.40
2023-01-18T14:01:44.100Z,1.20
2023-01-18T14:04:24.330Z,1.30
2023-01-18T14:06:53.186Z,1.53
2023-01-18T14:09:31.754Z,0.97
2023-01-18T14:11:59.195Z,1.20
2023-01-18T14:14:34.552Z,0.87
2023-01-18T14:17:15.218Z,0.80
2023-01-18T14:19:47.618Z,0.87
2023-01-18T14:22:30.510Z,0.93
2023-01-18T14:25:03.282Z,0.80
2023-01-18T14:27:36.603Z,0.60
2023-01-18T14:30:11.318Z,1.07
2023-01-18T14:32:44.134Z,0.77
2023-01-18T14:35:22.094Z,1.30
2023-01-18T14:37:50.442Z,1.00
2023-01-18T14:40:17.268Z,0.60
2023-01-18T14:43:00.968Z,1.30
2023-01-18T14:45:37.452Z,0.80
2023-01-18T14:48:17.544Z,0.80
2023-01-18T14:50:47.195Z,1.43
2023-01-18T14:53:21.796Z,1.70
2023-01-18T14:56:02.664Z,2.13
2023-01-18T14:58:34.507Z,1.03
2023-01-18T15:01:01.376Z,1.43
2023-01-18T15:03:29.861Z,1.80
2023-01-18T15:06:02.445Z,1.23
2023-01-18T15:08:31.788Z,1.73
2023-01-18T15:10:59.087Z,1.50
2023-01-18T15:13:29.606Z,1.73
2023-01-18T15:16:02.303Z,1.87
2023-01-18T15:18:30.151Z,1.93
2023-01-18T15:21:00.600Z,2.37
2023-01-18T15:23:28.486Z,1.80
2023-01-18T15:25:56.636Z,1.63
2023-01-18T15:28:30.112Z,1.87
2023-01-18T15:30:57.729Z,2.33
2023-01-18T15:33:26.508Z,1.30
2023-01-18T15:36:01.215Z,1.53
2023-01-18T15:38:28.281Z,1.77
2023-01-18T15:41:00.759Z,2.03
2023-01-18T15:43:42.324Z,1.77
2023-01-18T15:46:13.008Z,2.00
2023-01-18T15:48:52.277Z,3.03
2023-01-18T15:51:22.889Z,2.00
2023-01-18T15:53:56.654Z,2.03
2023-01-18T15:56:27.376Z,1.80
2023-01-18T15:58:56.952Z,3.13
2023-01-18T16:01:28.251Z,2.30
2023-01-18T16:04:00.548Z,2.13
2023-01-18T16:06:29.011Z,3.43
2023-01-18T16:09:13.892Z,3.07
2023-01-18T16:11:47.699Z,3.03
2023-01-18T16:14:27.988Z,3.27
2023-01-18T16:17:19.498Z,2.73
2023-01-18T16:19:56.147Z,2.70
2023-01-18T16:22:31.891Z,2.20
2023-01-18T16:25:11.694Z,2.57
2023-01-18T16:27:50.525Z,1.87
2023-01-18T16:30:33.478Z,1.43
2023-01-18T16:33:12.356Z,1.27
2023-01-18T16:35:41.944Z,2.20
2023-01-18T16:38:12.284Z,2.83
2023-01-18T16:40:40.671Z,2.37
2023-01-18T16:43:21.197Z,2.47
2023-01-18T16:45:50.683Z,2.83
2023-01-18T16:48:23.341Z,3.10
2023-01-18T16:50:50.603Z,2.20
2023-01-18T16:53:17.760Z,2.90
2023-01-18T16:55:45.274Z,3.00
2023-01-18T16:58:16.824Z,1.80
2023-01-18T17:00:58.051Z,2.70
2023-01-18T17:03:25.164Z,2.47
2023-01-18T17:05:52.168Z,2.83
2023-01-18T17:08:19.523Z,2.20
2023-01-18T17:10:48.699Z,2.37
2023-01-18T17:13:16.107Z,1.63
2023-01-18T17:15:45.423Z,2.37
2023-01-18T17:18:24.166Z,2.83
2023-01-18T17:20:50.836Z,1.40
2023-01-18T17:23:17.857Z,2.60
2023-01-18T17:25:44.869Z,2.97
2023-01-18T17:28:13.982Z,2.73
2023-01-18T17:30:42.674Z,3.20
2023-01-18T17:33:17.294Z,3.27
2023-01-18T17:35:44.295Z,2.50
2023-01-18T17:38:17.252Z,2.40
2023-01-18T17:40:49.385Z,2.27
2023-01-18T17:43:28.418Z,2.87
2023-01-18T17:46:01.855Z,2.77
2023-01-18T17:48:30.019Z,2.00
2023-01-18T17:50:56.836Z,1.73
2023-01-18T17:53:23.450Z,2.43
2023-01-18T17:55:50.154Z,1.50
2023-01-18T17:58:16.695Z,1.43
2023-01-18T18:00:43.372Z,2.27
2023-01-18T18:03:10.374Z,1.53
2023-01-18T18:05:37.069Z,2.27
2023-01-18T18:08:03.859Z,1.00
2023-01-18T18:10:31.141Z,1.00
2023-01-18T18:12:58.211Z,2.27
2023-01-18T18:15:25.587Z,1.27
2023-01-18T18:17:52.272Z,1.83
2023-01-18T18:20:20.235Z,1.93
2023-01-18T18:22:47.948Z,1.70
2023-01-18T18:25:14.830Z,0.73
2023-01-18T18:27:45.862Z,1.30
2023-01-18T18:30:13.583Z,1.10
2023-01-18T18:32:40.248Z,1.13
2023-01-18T18:35:23.049Z,1.77
2023-01-18T18:37:51.019Z,1.73
2023-01-18T18:40:17.847Z,1.50
2023-01-18T18:42:49.887Z,1.53
2023-01-18T18:45:27.091Z,1.53
2023-01-18T18:47:53.709Z,1.20
2023-01-18T18:50:20.535Z,1.90
2023-01-18T18:52:47.326Z,1.17
2023-01-18T18:55:14.346Z,2.23
2023-01-18T18:57:40.990Z,0.90
2023-01-18T19:00:08.468Z,1.37
2023-01-18T19:02:35.380Z,1.33
2023-01-18T19:05:02.451Z,1.83
2023-01-18T19:07:29.402Z,1.53
2023-01-18T19:09:56.075Z,1.70
2023-01-18T19:12:22.764Z,3.27
2023-01-18T19:14:49.477Z,1.70
2023-01-18T19:17:28.864Z,1.83
2023-01-18T19:19:56.561Z,0.90
2023-01-18T19:22:23.625Z,2.57
2023-01-18T19:24:50.247Z,1.20
2023-01-18T19:27:17.045Z,1.00
2023-01-18T19:29:43.770Z,1.87
2023-01-18T19:32:10.540Z,1.43
2023-01-18T19:34:38.736Z,1.53
2023-01-18T19:37:05.828Z,2.37
2023-01-18T19:39:35.162Z,1.60
2023-01-18T19:42:02.494Z,1.90
2023-01-18T19:44:29.351Z,1.40
2023-01-18T19:46:57.255Z,1.70
2023-01-18T19:49:26.569Z,1.70
2023-01-18T19:51:54.802Z,1.20
2023-01-18T19:54:22.131Z,3.57
2023-01-18T19:56:49.106Z,2.03
2023-01-18T19:59:16.003Z,1.97
2023-01-18T20:01:43.404Z,1.47
2023-01-18T20:04:11.007Z,2.13
2023-01-18T20:06:38.776Z,2.37
2023-01-18T20:09:17.830Z,1.63
2023-01-18T20:11:45.564Z,1.80
2023-01-18T20:14:12.444Z,2.27
2023-01-18T20:16:40.080Z,1.57
2023-01-18T20:19:07.053Z,1.43
2023-01-18T20:21:33.690Z,0.93
2023-01-18T20:24:01.114Z,1.50
2023-01-18T20:26:36.492Z,1.50
2023-01-18T20:29:07.079Z,1.00
2023-01-18T20:31:36.253Z,2.20
2023-01-18T20:34:03.353Z,0.93
2023-01-18T20:36:29.997Z,1.53
2023-01-18T20:38:56.824Z,1.13
2023-01-18T20:41:23.648Z,1.70
2023-01-18T20:43:50.306Z,1.03
2023-01-18T20:46:17.001Z,1.30
2023-01-18T20:48:44.115Z,1.43
2023-01-18T20:51:10.732Z,1.73
2023-01-18T20:53:40.846Z,1.67
2023-01-18T20:56:17.049Z,0.93
2023-01-18T20:58:54.546Z,2.20
2023-01-18T21:01:21.745Z,1.27
2023-01-18T21:03:55.383Z,1.37
2023-01-18T21:06:21.971Z,1.50
2023-01-18T21:08:52.668Z,1.07
2023-01-18T21:11:23.033Z,1.03
2023-01-18T21:13:51.468Z,0.70
2023-01-18T21:16:18.473Z,0.73
2023-01-18T21:18:45.174Z,1.33
2023-01-18T21:21:12.972Z,1.50
2023-01-18T21:23:39.769Z,1.50
2023-01-18T21:26:11.183Z,0.60
2023-01-18T21:28:37.956Z,1.33
2023-01-18T21:31:05.407Z,0.70
2023-01-18T21:33:32.141Z,0.93
2023-01-18T21:36:12.214Z,0.97
2023-01-18T21:38:39.058Z,1.27
2023-01-18T21:41:24.460Z,1.23
2023-01-18T21:44:11.555Z,0.43
2023-01-18T21:46:44.177Z,0.83
2023-01-18T21:49:42.991Z,0.87
2023-01-18T21:52:34.355Z,1.00
2023-01-18T21:55:00.943Z,0.90
2023-01-18T21:57:27.471Z,0.50
2023-01-18T21:59:54.204Z,1.10
2023-01-18T22:02:22.640Z,1.40
2023-01-18T22:05:03.428Z,1.00
2023-01-18T22:07:33.239Z,1.47
2023-01-18T22:10:05.745Z,1.23
2023-01-18T22:12:35.761Z,1.13
2023-01-18T22:15:04.598Z,1.03
2023-01-18T22:17:31.592Z,0.80
2023-01-18T22:19:58.542Z,1.57
2023-01-18T22:22:25.156Z,0.53
2023-01-18T22:24:51.997Z,1.23
2023-01-18T22:27:18.602Z,1.07
2023-01-18T22:29:45.181Z,1.37
2023-01-18T22:32:12.138Z,1.17
2023-01-18T22:34:38.855Z,1.13
2023-01-18T22:37:05.902Z,1.73
2023-01-18T22:39:32.644Z,2.17
2023-01-18T22:41:59.328Z,2.00
2023-01-18T22:44:25.964Z,1.27
2023-01-18T22:46:52.916Z,1.73
2023-01-18T22:49:19.746Z,1.07
2023-01-18T22:51:46.547Z,1.17
2023-01-18T22:54:13.359Z,1.37
2023-01-18T22:56:39.939Z,0.77
2023-01-18T22:59:06.511Z,1.03
2023-01-18T23:01:33.722Z,0.80
2023-01-18T23:04:03.386Z,1.73
2023-01-18T23:06:42.533Z,1.20
2023-01-18T23:09:10.431Z,0.73
2023-01-18T23:11:37.822Z,1.30
2023-01-18T23:14:23.666Z,2.50
2023-01-18T23:17:08.764Z,0.60
2023-01-18T23:19:35.853Z,1.33
2023-01-18T23:22:07.395Z,1.03
2023-01-18T23:24:35.824Z,0.63
2023-01-18T23:27:04.017Z,0.80
2023-01-18T23:29:30.781Z,0.70
2023-01-18T23:31:58.440Z,0.37
2023-01-18T23:34:25.841Z,1.63
2023-01-18T23:36:52.890Z,0.70
2023-01-18T23:39:38.206Z,0.70
2023-01-18T23:42:23.297Z,1.67
2023-01-18T23:45:08.625Z,0.93
2023-01-18T23:47:53.931Z,0.47
2023-01-18T23:50:39.525Z,0.60
2023-01-18T23:53:24.495Z,1.67
2023-01-18T23:55:53.066Z,0.80
2023-01-18T23:58:19.777Z,1.53
